Time;durP1;ratioP1;P1;durP2;ratioP2;P2;SDS_P1;SDS_P2;PMS_P1;PMS_P2;Temp;Humidity;BMP_temperature;BMP_pressure;BME280_temperature;BME280_humidity;BME280_pressure;Samples;Min_cycle;Max_cycle;Signal;HPM_P1;HPM_P2
2021/04/27 00:00:42;;;;;;;;;11.50;11.50;;;;;4.66;68.84;101497.06;4885598;29;11565;-73
2021/04/27 00:03:37;;;;;;;;;13.00;13.00;;;;;4.62;69.62;101511.59;4884756;29;11604;-72
2021/04/27 00:06:33;;;;;;;;;13.50;13.50;;;;;4.43;69.48;101505.78;4898099;29;11617;-73
2021/04/27 00:09:28;;;;;;;;;16.75;16.75;;;;;4.66;68.58;101507.19;4889794;29;11563;-72
2021/04/27 00:12:24;;;;;;;;;17.50;15.75;;;;;4.69;68.98;101509.41;4888139;29;11580;-72
2021/04/27 00:15:23;;;;;;;;;16.50;16.50;;;;;4.68;68.55;101514.06;4899307;29;12356;-72
2021/04/27 00:18:19;;;;;;;;;17.00;17.00;;;;;4.74;67.92;101510.22;4882315;29;11716;-71
2021/04/27 00:21:14;;;;;;;;;18.00;18.00;;;;;4.64;68.65;101503.91;4868085;29;11658;-71
2021/04/27 00:24:10;;;;;;;;;9.25;9.25;;;;;4.72;67.85;101506.94;4880259;29;11697;-71
2021/04/27 00:27:06;;;;;;;;;18.25;16.75;;;;;4.55;68.60;101511.03;4883809;29;11550;-71
2021/04/27 00:30:04;;;;;;;;;15.25;15.25;;;;;4.73;68.27;101513.25;4897834;29;11612;-71
2021/04/27 00:33:00;;;;;;;;;13.00;13.00;;;;;4.78;67.95;101504.22;4897719;29;11585;-71
2021/04/27 00:35:56;;;;;;;;;11.00;11.00;;;;;4.44;69.24;101505.50;4891702;29;11598;-71
2021/04/27 00:38:51;;;;;;;;;9.00;9.00;;;;;4.26;70.73;101510.66;4893828;29;11619;-71
2021/04/27 00:41:47;;;;;;;;;9.00;9.00;;;;;4.42;69.52;101501.41;4880191;29;11580;-71
2021/04/27 00:44:42;;;;;;;;;11.00;11.00;;;;;4.34;69.45;101510.97;4883043;29;11571;-71
2021/04/27 00:47:38;;;;;;;;;12.75;12.75;;;;;4.41;69.10;101516.19;4884824;29;11615;-71
2021/04/27 00:50:39;;;;;;;;;14.00;14.00;;;;;4.30;69.64;101512.59;4897447;29;11589;-71
2021/04/27 00:53:35;;;;;;;;;11.75;11.75;;;;;4.52;69.04;101514.28;4897001;29;11779;-71
2021/04/27 00:56:31;;;;;;;;;13.75;13.75;;;;;4.38;69.47;101508.53;4897127;29;11557;-71
2021/04/27 00:58:58;;;;;;;;;11.75;11.75;;;;;4.29;69.11;101508.19;4898407;29;11667;-71
2021/04/27 01:01:54;;;;;;;;;17.50;15.00;;;;;4.36;68.74;101505.22;4897275;29;11725;-71
2021/04/27 01:04:50;;;;;;;;;10.25;10.25;;;;;4.49;68.62;101503.88;4896932;29;11670;-72
2021/04/27 01:08:01;;;;;;;;;13.00;13.00;;;;;4.59;67.68;101507.47;4897099;29;11591;-70
2021/04/27 01:10:56;;;;;;;;;8.50;8.50;;;;;4.55;67.52;101500.88;4865632;29;11592;-71
2021/04/27 01:14:13;;;;;;;;;7.75;7.75;;;;;4.68;67.79;101499.56;4879069;29;11573;-72
2021/04/27 01:17:13;;;;;;;;;12.50;12.50;;;;;4.54;67.57;101504.72;4878288;29;11612;-71
2021/04/27 01:20:19;;;;;;;;;10.50;10.50;;;;;4.68;67.09;101499.56;4878360;29;12257;-72
2021/04/27 01:23:24;;;;;;;;;2.50;2.50;;;;;4.56;67.09;101505.28;4879621;29;11563;-71
2021/04/27 01:26:19;;;;;;;;;10.50;10.50;;;;;4.48;67.47;101500.31;4878101;29;11586;-70
2021/04/27 01:29:21;;;;;;;;;11.75;11.75;;;;;4.45;67.65;101503.63;4878110;29;11596;-72
2021/04/27 01:32:19;;;;;;;;;11.50;8.50;;;;;4.44;67.22;101499.19;4877342;29;11637;-72
2021/04/27 01:35:15;;;;;;;;;9.75;9.75;;;;;4.39;67.06;101500.03;4877982;29;11542;-71
2021/04/27 01:38:12;;;;;;;;;12.50;12.50;;;;;4.34;67.76;101499.19;4889491;29;11572;-72
2021/04/27 01:41:08;;;;;;;;;12.00;11.25;;;;;4.25;68.06;101500.81;4848605;29;11590;-71
2021/04/27 01:44:05;;;;;;;;;13.25;12.50;;;;;4.47;67.48;101509.63;4860824;29;11589;-71
2021/04/27 01:46:33;;;;;;;;;13.00;13.00;;;;;4.52;67.51;101503.31;4860025;29;12458;-72
2021/04/27 01:49:31;;;;;;;;;15.25;15.00;;;;;4.55;66.52;101502.81;4853344;29;11940;-72
2021/04/27 01:52:27;;;;;;;;;14.50;14.50;;;;;4.49;67.00;101506.63;4830466;29;11807;-72
2021/04/27 01:55:24;;;;;;;;;12.25;12.25;;;;;4.49;66.42;101504.69;4859179;29;11623;-72
2021/04/27 01:58:19;;;;;;;;;13.00;13.00;;;;;4.40;66.83;101515.38;4859401;29;11655;-72
2021/04/27 02:01:15;;;;;;;;;14.25;13.25;;;;;4.33;67.58;101514.78;4859210;29;11622;-72
2021/04/27 02:04:11;;;;;;;;;16.00;16.00;;;;;4.37;67.83;101518.66;4839956;29;11684;-72
2021/04/27 02:07:07;;;;;;;;;8.75;8.75;;;;;4.43;66.93;101517.56;4855622;29;11614;-72
2021/04/27 02:10:08;;;;;;;;;16.75;16.75;;;;;4.51;66.71;101515.38;4858366;29;11528;-72
2021/04/27 02:12:52;;;;;;;;;18.75;18.00;;;;;4.48;66.40;101524.97;4879052;29;11702;-73
2021/04/27 02:15:48;;;;;;;;;15.25;15.00;;;;;4.36;67.51;101518.91;4874255;29;11630;-72
2021/04/27 02:18:49;;;;;;;;;17.50;17.50;;;;;4.54;66.56;101520.34;4877753;29;11801;-72
2021/04/27 02:21:46;;;;;;;;;23.00;22.75;;;;;4.49;66.24;101523.06;4877868;29;11609;-72
2021/04/27 02:24:42;;;;;;;;;27.25;19.00;;;;;4.41;66.78;101533.44;4877506;29;12426;-72
2021/04/27 02:27:38;;;;;;;;;19.75;19.75;;;;;4.43;66.72;101533.16;4872331;29;11624;-72
2021/04/27 02:30:35;;;;;;;;;5.25;3.50;;;;;4.44;66.63;101526.59;4881276;29;11679;-72
2021/04/27 02:33:34;;;;;;;;;24.50;22.50;;;;;4.40;66.74;101526.31;4881171;29;11673;-72
2021/04/27 02:36:30;;;;;;;;;13.75;12.25;;;;;4.23;67.96;101530.38;4868438;29;11715;-71
2021/04/27 02:38:57;;;;;;;;;18.25;18.25;;;;;4.44;67.12;101532.91;4862288;29;11671;-72
2021/04/27 02:41:53;;;;;;;;;28.33;27.00;;;;;4.31;67.72;101540.81;4875664;29;11610;-70
2021/04/27 02:44:51;;;;;;;;;28.50;28.00;;;;;4.46;67.77;101551.81;4871764;29;11599;-71
2021/04/27 02:47:47;;;;;;;;;29.00;29.00;;;;;4.63;67.22;101552.41;4890971;29;11614;-72
2021/04/27 02:50:35;;;;;;;;;22.25;22.25;;;;;4.58;67.29;101551.56;4900388;29;11626;-71
2021/04/27 02:53:30;;;;;;;;;20.25;20.25;;;;;4.71;66.84;101556.53;4899582;29;11649;-72
2021/04/27 02:56:27;;;;;;;;;28.25;27.25;;;;;4.68;67.56;101554.34;4899090;29;11593;-71
2021/04/27 02:58:54;;;;;;;;;32.00;26.00;;;;;4.63;67.92;101559.81;4883907;29;11616;-72
2021/04/27 03:01:50;;;;;;;;;38.33;37.00;;;;;4.73;67.57;101552.44;4898244;29;11591;-71
2021/04/27 03:04:45;;;;;;;;;66.00;52.00;;;;;4.68;68.21;101559.84;4892090;29;11698;-71
2021/04/27 03:07:41;;;;;;;;;62.67;46.00;;;;;4.87;68.14;101563.69;4899205;29;8949;-70
2021/04/27 03:10:37;;;;;;;;;79.00;59.67;;;;;4.91;68.39;101559.34;4899331;29;8875;-71
2021/04/27 03:13:04;;;;;;;;;75.00;59.00;;;;;5.09;67.84;101555.22;4900484;29;8892;-70
2021/04/27 03:16:00;;;;;;;;;78.67;50.00;;;;;5.13;68.11;101555.50;4899114;29;8887;-70
2021/04/27 03:18:55;;;;;;;;;66.00;52.33;;;;;5.16;68.15;101555.78;4879686;29;8844;-71
2021/04/27 03:21:51;;;;;;;;;55.00;47.67;;;;;5.33;67.78;101558.25;4874006;29;8978;-70
2021/04/27 03:24:47;;;;;;;;;63.33;51.67;;;;;5.47;67.17;101562.09;4880178;29;8974;-70
2021/04/27 03:27:15;;;;;;;;;73.33;56.33;;;;;5.44;67.92;101556.31;4881332;29;12402;-70
2021/04/27 03:30:12;;;;;;;;;52.00;40.67;;;;;5.56;67.40;101552.19;4880563;29;8955;-70
2021/04/27 03:33:08;;;;;;;;;72.00;55.67;;;;;5.58;67.54;101566.47;4880144;29;8828;-70
2021/04/27 03:36:04;;;;;;;;;63.67;52.67;;;;;5.54;67.72;101557.16;4880059;29;8955;-70
2021/04/27 03:39:00;;;;;;;;;58.67;48.33;;;;;5.83;67.17;101571.13;4868072;29;8845;-70
2021/04/27 03:41:56;;;;;;;;;61.67;50.67;;;;;6.01;66.27;101585.38;4892777;29;12460;-71
2021/04/27 03:44:52;;;;;;;;;60.67;48.67;;;;;6.17;65.79;101586.97;4897055;29;9138;-70
2021/04/27 03:47:47;;;;;;;;;60.00;50.00;;;;;6.13;66.77;101585.88;4889328;29;8849;-70
2021/04/27 03:50:44;;;;;;;;;58.33;50.33;;;;;6.32;67.13;101584.16;4898441;29;11745;-70
2021/04/27 03:53:13;;;;;;;;;62.33;50.33;;;;;6.46;66.13;101586.34;4899657;29;8858;-71
2021/04/27 03:56:08;;;;;;;;;70.33;53.67;;;;;6.54;66.39;101588.50;4898362;29;11636;-71
2021/04/27 03:59:04;;;;;;;;;60.67;50.00;;;;;6.54;66.16;101586.56;4898181;29;8869;-70
2021/04/27 04:02:00;;;;;;;;;75.67;62.67;;;;;6.56;66.82;101572.53;4884374;29;11651;-69
2021/04/27 04:04:56;;;;;;;;;96.33;81.00;;;;;6.73;66.17;101572.97;4894352;29;8838;-71
2021/04/27 04:07:51;;;;;;;;;71.00;50.33;;;;;6.89;65.99;101577.28;4870390;29;8857;-72
2021/04/27 04:10:39;;;;;;;;;79.67;59.00;;;;;7.07;65.92;101572.25;4880313;29;8861;-72
2021/04/27 04:13:07;;;;;;;;;63.25;51.25;;;;;7.10;65.67;101572.47;4891509;29;8896;-71
2021/04/27 04:16:03;;;;;;;;;67.75;53.25;;;;;7.26;65.08;101564.91;4874373;29;11699;-71
2021/04/27 04:18:59;;;;;;;;;60.50;52.00;;;;;7.31;65.21;101556.63;4878901;29;11594;-71
2021/04/27 04:21:55;;;;;;;;;58.25;48.25;;;;;7.35;65.85;101552.19;4880161;29;11618;-72
2021/04/27 04:24:51;;;;;;;;;36.25;33.75;;;;;7.53;65.33;101547.91;4873574;29;11685;-72
2021/04/27 04:27:27;;;;;;;;;57.75;47.75;;;;;7.53;65.65;101543.22;4894762;29;11633;-72
2021/04/27 04:30:24;;;;;;;;;50.25;43.75;;;;;7.61;65.72;101550.03;4869361;29;11634;-72
2021/04/27 04:32:53;;;;;;;;;50.50;45.00;;;;;7.74;65.50;101549.38;4880227;29;11701;-71
2021/04/27 04:35:22;;;;;;;;;48.75;40.25;;;;;7.87;64.46;101550.59;4863265;29;11629;-72
2021/04/27 04:38:18;;;;;;;;;28.00;28.00;;;;;7.99;63.92;101555.72;4877922;29;11634;-71
2021/04/27 04:41:14;;;;;;;;;36.25;36.25;;;;;8.02;63.97;101553.19;4890985;29;11647;-70
2021/04/27 04:43:42;;;;;;;;;43.75;35.75;;;;;8.08;63.98;101554.78;4889406;29;11670;-70
2021/04/27 04:46:10;;;;;;;;;41.50;39.00;;;;;8.22;63.22;101549.38;4892229;29;11582;-70
2021/04/27 04:49:06;;;;;;;;;41.00;38.50;;;;;8.37;62.78;101550.34;4891166;29;11585;-70
2021/04/27 04:51:34;;;;;;;;;39.75;37.75;;;;;8.53;62.54;101555.34;4890620;29;11591;-70
2021/04/27 04:54:03;;;;;;;;;39.75;37.00;;;;;8.63;62.42;101552.44;4894346;29;11660;-70
2021/04/27 04:56:46;;;;;;;;;48.00;41.00;;;;;8.81;61.80;101552.75;4893979;29;11716;-70
2021/04/27 04:59:14;;;;;;;;;38.25;35.25;;;;;8.93;61.33;101552.31;4890671;29;11659;-70
2021/04/27 05:01:50;;;;;;;;;36.00;35.00;;;;;9.13;60.90;101550.06;4886857;29;11683;-71
2021/04/27 05:04:17;;;;;;;;;27.75;27.75;;;;;9.38;59.86;101546.06;4886864;29;11628;-71
2021/04/27 05:06:58;;;;;;;;;32.25;30.25;;;;;9.52;58.28;101537.00;4883537;29;11627;-72
2021/04/27 05:09:47;;;;;;;;;33.25;32.25;;;;;9.81;57.95;101539.50;4887255;29;11617;-70
2021/04/27 05:12:15;;;;;;;;;31.50;28.00;;;;;9.91;57.59;101531.03;4886284;29;11612;-72
2021/04/27 05:14:43;;;;;;;;;38.25;32.75;;;;;10.01;56.71;101531.66;4863228;29;12425;-70
2021/04/27 05:17:13;;;;;;;;;24.50;24.50;;;;;9.99;55.58;101533.09;4887718;29;12487;-71
2021/04/27 05:19:42;;;;;;;;;24.75;24.75;;;;;10.15;54.19;101536.38;4870113;29;11674;-71
2021/04/27 05:22:10;;;;;;;;;28.50;28.50;;;;;10.25;53.28;101545.28;4886355;29;12355;-71
2021/04/27 05:24:40;;;;;;;;;23.25;21.75;;;;;10.30;52.36;101542.44;4887789;29;11698;-73
2021/04/27 05:27:08;;;;;;;;;13.50;13.00;;;;;10.48;50.32;101534.31;4852937;29;11489;-70
2021/04/27 05:29:36;;;;;;;;;21.00;20.00;;;;;10.39;50.81;101541.69;4885986;29;12337;-71
2021/04/27 05:32:05;;;;;;;;;17.50;17.50;;;;;10.58;50.93;101548.75;4887044;29;11637;-72
2021/04/27 05:34:33;;;;;;;;;21.25;21.25;;;;;10.61;51.62;101549.25;4887544;29;11594;-71
2021/04/27 05:37:02;;;;;;;;;19.25;19.25;;;;;10.64;51.89;101543.91;4886116;29;11543;-70
2021/04/27 05:39:31;;;;;;;;;19.50;19.50;;;;;10.72;51.33;101553.41;4879563;29;11569;-71
2021/04/27 05:41:58;;;;;;;;;21.00;21.00;;;;;11.03;51.25;101548.00;4858917;29;11616;-71
2021/04/27 05:44:27;;;;;;;;;13.50;13.50;;;;;11.05;51.08;101548.53;4861138;29;12410;-71
2021/04/27 05:47:17;;;;;;;;;16.25;15.50;;;;;11.22;50.03;101551.44;4877726;29;12284;-72
2021/04/27 05:49:59;;;;;;;;;11.50;10.00;;;;;11.33;48.79;101557.53;4863190;29;11539;-72
2021/04/27 05:52:54;;;;;;;;;8.50;8.50;;;;;11.37;46.80;101541.91;4872354;29;11124;-71
2021/04/27 05:55:22;;;;;;;;;5.25;5.25;;;;;11.48;45.22;101542.47;4877070;29;11042;-72
2021/04/27 05:57:58;;;;;;;;;4.75;4.75;;;;;11.47;43.16;101540.84;4862770;29;10912;-72
2021/04/27 06:00:54;;;;;;;;;8.50;8.00;;;;;11.44;41.18;101539.53;4877640;29;10797;-72
2021/04/27 06:03:51;;;;;;;;;4.00;4.00;;;;;11.49;43.03;101542.16;4868256;29;10841;-71
2021/04/27 06:06:27;;;;;;;;;7.25;7.25;;;;;11.67;43.01;101541.13;4882180;29;10859;-74
2021/04/27 06:09:23;;;;;;;;;9.75;9.75;;;;;11.73;44.96;101552.91;4868434;29;10914;-71
2021/04/27 06:12:19;;;;;;;;;6.75;6.75;;;;;11.70;46.38;101547.97;4863876;29;11730;-73
2021/04/27 06:14:46;;;;;;;;;8.00;8.00;;;;;11.69;46.75;101552.72;4877240;29;10897;-71
2021/04/27 06:17:41;;;;;;;;;8.75;7.75;;;;;11.72;45.32;101565.09;4868269;29;10964;-72
2021/04/27 06:20:41;;;;;;;;;9.50;9.50;;;;;11.51;46.69;101577.88;4881095;29;10827;-73
2021/04/27 06:23:37;;;;;;;;;10.75;10.00;;;;;11.50;47.82;101585.38;4881351;29;10964;-72
2021/04/27 06:26:32;;;;;;;;;9.50;9.00;;;;;11.44;48.81;101589.38;4880742;29;11014;-72
2021/04/27 06:29:28;;;;;;;;;9.50;9.50;;;;;11.44;49.64;101574.72;4881351;29;10956;-71
2021/04/27 06:32:09;;;;;;;;;23.00;21.00;;;;;11.55;49.47;101587.16;4881956;29;10914;-72
2021/04/27 06:34:37;;;;;;;;;8.50;8.50;;;;;11.09;49.04;101582.75;4865096;29;11202;-72
2021/04/27 06:37:33;;;;;;;;;10.25;10.25;;;;;10.82;50.69;101581.69;4881098;29;11018;-72
2021/04/27 06:40:01;;;;;;;;;10.50;10.50;;;;;10.85;50.09;101580.25;4882366;29;11116;-72
2021/04/27 06:42:28;;;;;;;;;8.50;8.50;;;;;10.83;49.82;101583.34;4881910;29;11145;-73
2021/04/27 06:44:56;;;;;;;;;9.50;9.50;;;;;10.84;49.56;101584.97;4870404;29;11023;-71
2021/04/27 06:47:52;;;;;;;;;17.75;17.75;;;;;10.76;49.71;101591.25;4886800;29;11071;-72
2021/04/27 06:50:20;;;;;;;;;12.75;12.75;;;;;10.92;49.98;101596.44;4900489;29;11523;-72
2021/04/27 06:53:16;;;;;;;;;7.00;7.00;;;;;10.81;50.03;101587.53;4899340;29;11253;-72
2021/04/27 06:56:12;;;;;;;;;8.00;8.00;;;;;10.70;49.79;101591.66;4899371;29;11301;-72
2021/04/27 06:59:10;;;;;;;;;9.50;9.50;;;;;10.70;49.48;101602.72;4899468;29;11114;-73
2021/04/27 07:02:08;;;;;;;;;7.00;7.00;;;;;10.70;49.57;101597.19;4893852;29;11235;-73
2021/04/27 07:04:58;;;;;;;;;7.25;7.25;;;;;10.86;48.80;101595.72;4867928;29;11158;-73
2021/04/27 07:07:55;;;;;;;;;12.50;12.50;;;;;10.84;49.30;101600.75;4893779;29;11508;-72
2021/04/27 07:10:24;;;;;;;;;14.00;9.00;;;;;10.63;49.09;101597.59;4898944;29;11610;-73
2021/04/27 07:12:54;;;;;;;;;12.75;12.75;;;;;10.65;49.08;101605.59;4885514;29;11291;-72
2021/04/27 07:15:28;;;;;;;;;12.75;12.75;;;;;10.66;49.21;101608.06;4895777;29;11478;-72
2021/04/27 07:18:09;;;;;;;;;7.75;7.75;;;;;10.74;50.69;101610.09;4893788;29;11577;-72
2021/04/27 07:21:01;;;;;;;;;6.75;6.75;;;;;11.06;49.17;101608.28;4897238;29;11205;-74
2021/04/27 07:23:38;;;;;;;;;9.00;9.00;;;;;11.03;49.53;101608.91;4867316;29;11264;-74
2021/04/27 07:26:36;;;;;;;;;7.50;6.75;;;;;11.30;48.13;101603.28;4891488;29;11161;-74
2021/04/27 07:29:10;;;;;;;;;7.00;7.00;;;;;11.37;46.38;101605.63;4892932;29;11211;-74
2021/04/27 07:32:07;;;;;;;;;5.25;5.25;;;;;11.11;47.22;101608.16;4888547;29;11157;-74
2021/04/27 07:35:06;;;;;;;;;5.50;5.00;;;;;11.30;45.86;101602.47;4892313;29;11842;-74
2021/04/27 07:37:48;;;;;;;;;5.50;5.50;;;;;11.02;45.24;101599.78;4862002;29;11939;-73
2021/04/27 07:40:47;;;;;;;;;10.00;10.00;;;;;11.43;44.19;101606.31;4893341;29;10982;-73
2021/04/27 07:43:45;;;;;;;;;9.75;9.75;;;;;11.57;43.47;101593.19;4892762;29;10982;-73
2021/04/27 07:46:13;;;;;;;;;7.00;7.00;;;;;11.83;42.13;101590.66;4863898;29;11355;-73
2021/04/27 07:48:40;;;;;;;;;15.50;15.50;;;;;11.88;42.47;101591.31;4878945;29;10995;-73
2021/04/27 07:51:22;;;;;;;;;8.00;8.00;;;;;12.00;41.51;101576.06;4880612;29;11146;-73
2021/04/27 07:53:50;;;;;;;;;10.75;10.75;;;;;12.27;41.24;101581.41;4877977;29;10888;-73
2021/04/27 07:56:21;;;;;;;;;14.25;14.25;;;;;12.20;41.10;101570.75;4854645;29;10872;-75
2021/04/27 07:59:17;;;;;;;;;9.00;9.00;;;;;12.42;40.72;101583.75;4866667;29;10821;-74
2021/04/27 08:02:13;;;;;;;;;10.50;7.75;;;;;12.59;40.93;101574.63;4867141;29;10744;-74
2021/04/27 08:05:21;;;;;;;;;3.75;3.75;;;;;12.57;41.55;101576.91;4860533;29;10544;-74
2021/04/27 08:08:16;;;;;;;;;6.50;6.50;;;;;12.85;40.34;101569.13;4876674;29;10429;-74
2021/04/27 08:11:12;;;;;;;;;6.75;6.75;;;;;12.64;41.91;101568.91;4878123;29;10376;-75
2021/04/27 08:14:08;;;;;;;;;7.75;7.75;;;;;13.03;40.93;101576.34;4878980;29;10517;-74
2021/04/27 08:17:04;;;;;;;;;4.00;4.00;;;;;12.85;38.95;101568.31;4879020;29;10837;-74
2021/04/27 08:20:00;;;;;;;;;4.75;4.75;;;;;12.73;38.40;101575.31;4878967;29;10289;-72
2021/04/27 08:22:44;;;;;;;;;3.50;3.50;;;;;12.94;38.93;101572.72;4864712;29;10346;-73
2021/04/27 08:25:17;;;;;;;;;5.00;5.00;;;;;13.06;37.42;101564.56;4878992;29;10228;-74
2021/04/27 08:28:13;;;;;;;;;19.75;19.50;;;;;13.13;38.54;101564.09;4865690;29;10183;-75
2021/04/27 08:31:11;;;;;;;;;5.25;4.75;;;;;11.87;39.07;101561.97;4865821;29;10943;-70
2021/04/27 08:34:08;;;;;;;;;3.75;3.75;;;;;12.19;38.79;101568.28;4878874;29;10277;-74
2021/04/27 08:37:04;;;;;;;;;3.50;3.50;;;;;12.24;39.26;101560.66;4877369;29;10265;-71
2021/04/27 08:39:31;;;;;;;;;5.25;5.25;;;;;12.37;39.30;101558.91;4879866;29;10193;-74
2021/04/27 08:41:59;;;;;;;;;10.00;9.00;;;;;12.25;40.74;101556.72;4863680;29;10278;-74
2021/04/27 08:44:56;;;;;;;;;4.25;4.25;;;;;12.33;40.33;101554.31;4877154;29;10804;-73
2021/04/27 08:47:53;;;;;;;;;4.00;4.00;;;;;12.49;39.88;101549.94;4878482;29;10490;-73
2021/04/27 08:50:21;;;;;;;;;3.75;3.75;;;;;12.43;39.42;101538.19;4863497;29;10587;-73
2021/04/27 08:53:17;;;;;;;;;8.50;8.50;;;;;12.40;40.03;101538.03;4859831;29;10537;-74
2021/04/27 08:56:13;;;;;;;;;8.25;8.25;;;;;12.77;40.07;101536.63;4860223;29;10432;-72
2021/04/27 08:58:41;;;;;;;;;4.00;4.00;;;;;12.89;39.59;101539.56;4861003;29;10429;-73
2021/04/27 09:01:37;;;;;;;;;4.00;4.00;;;;;12.68;40.06;101542.16;4847359;29;10437;-71
2021/04/27 09:04:05;;;;;;;;;3.00;3.00;;;;;12.87;39.10;101532.69;4860826;29;10440;-72
2021/04/27 09:07:06;;;;;;;;;7.00;7.00;;;;;12.41;40.66;101528.53;4865940;29;10493;-73
2021/04/27 09:10:17;;;;;;;;;6.00;4.75;;;;;12.16;40.83;101521.81;4878147;29;10495;-71
2021/04/27 09:13:09;;;;;;;;;4.75;4.75;;;;;12.09;41.05;101525.03;4878897;29;10427;-70
2021/04/27 09:16:05;;;;;;;;;4.00;4.00;;;;;12.06;42.17;101520.16;4864893;29;11147;-70
2021/04/27 09:18:34;;;;;;;;;4.75;4.75;;;;;12.09;42.31;101533.34;4876147;29;10555;-70
2021/04/27 09:21:36;;;;;;;;;4.00;4.00;;;;;12.23;41.99;101536.03;4867691;29;11127;-70
2021/04/27 09:24:40;;;;;;;;;5.00;5.00;;;;;12.23;42.32;101531.28;4878171;29;10680;-70
2021/04/27 09:27:48;;;;;;;;;5.75;5.75;;;;;12.22;42.36;101521.34;4877794;29;10591;-70
2021/04/27 09:30:43;;;;;;;;;4.50;4.50;;;;;11.99;43.56;101530.88;4856886;29;10718;-71
2021/04/27 09:33:14;;;;;;;;;6.00;6.00;;;;;12.22;42.98;101526.06;4878944;29;10381;-72
2021/04/27 09:36:17;;;;;;;;;4.00;4.00;;;;;12.10;43.04;101539.72;4865261;29;10439;-72
2021/04/27 09:39:13;;;;;;;;;4.00;4.00;;;;;11.79;45.21;101520.31;4878153;29;10340;-72
2021/04/27 09:41:55;;;;;;;;;7.00;7.00;;;;;11.89;45.80;101523.66;4878868;29;10588;-72
2021/04/27 09:44:54;;;;;;;;;4.00;4.00;;;;;12.04;45.25;101516.03;4868394;29;11690;-75
2021/04/27 09:47:52;;;;;;;;;5.00;5.00;;;;;11.81;45.61;101530.00;4867211;29;10533;-76
2021/04/27 09:50:47;;;;;;;;;3.00;3.00;;;;;11.58;47.06;101528.38;4905353;29;10740;-74
2021/04/27 09:53:51;;;;;;;;;8.00;8.00;;;;;11.14;48.98;101543.88;4906346;29;10645;-75
2021/04/27 09:56:50;;;;;;;;;8.75;8.75;;;;;11.07;50.72;101538.78;4903480;29;10970;-75
2021/04/27 09:59:46;;;;;;;;;4.25;4.25;;;;;11.22;51.06;101540.34;4869775;29;10840;-75
2021/04/27 10:02:42;;;;;;;;;6.00;6.00;;;;;11.26;52.13;101543.28;4870642;29;11116;-75
2021/04/27 10:05:42;;;;;;;;;5.50;5.50;;;;;10.63;53.59;101545.03;4883714;29;10939;-77
2021/04/27 10:08:37;;;;;;;;;7.00;7.00;;;;;10.60;55.00;101537.38;4891277;29;11049;-75
2021/04/27 10:11:34;;;;;;;;;5.00;5.00;;;;;10.68;55.38;101552.41;4865755;29;10873;-74
2021/04/27 10:14:08;;;;;;;;;7.25;6.75;;;;;10.70;54.60;101547.38;4886097;29;11224;-75
2021/04/27 10:17:03;;;;;;;;;6.25;6.25;;;;;10.36;56.68;101556.97;4876546;29;11087;-74
2021/04/27 10:19:34;;;;;;;;;6.50;6.50;;;;;9.96;57.15;101539.22;4885028;29;11152;-75
2021/04/27 10:22:05;;;;;;;;;6.25;6.25;;;;;10.35;56.65;101546.19;4878437;29;11290;-75
2021/04/27 10:24:59;;;;;;;;;7.25;7.25;;;;;10.37;58.31;101553.06;4878448;29;11063;-79
2021/04/27 10:28:01;;;;;;;;;7.25;7.25;;;;;10.44;59.95;101552.66;4876995;29;11248;-77
2021/04/27 10:30:57;;;;;;;;;2.75;2.75;;;;;10.12;60.30;101550.78;4879162;29;12361;-75
2021/04/27 10:34:11;;;;;;;;;7.25;7.25;;;;;10.32;62.04;101546.81;4878837;29;11484;-74
2021/04/27 10:36:49;;;;;;;;;7.75;7.75;;;;;10.19;62.24;101554.78;4883974;29;11228;-75
2021/04/27 10:39:38;;;;;;;;;7.75;6.75;;;;;9.93;61.75;101548.94;4896400;29;12257;-76
2021/04/27 10:42:19;;;;;;;;;7.50;7.50;;;;;9.87;62.59;101546.56;4896813;29;11515;-75
2021/04/27 10:45:02;;;;;;;;;7.00;7.00;;;;;9.73;64.62;101543.78;4886700;29;11476;-79
2021/04/27 10:48:02;;;;;;;;;6.75;6.75;;;;;9.34;65.69;101544.19;4869097;29;11614;-74
2021/04/27 10:51:19;;;;;;;;;7.00;7.00;;;;;9.55;64.12;101544.69;4887481;29;11491;-74
2021/04/27 10:54:21;;;;;;;;;11.00;11.00;;;;;9.23;65.66;101539.97;4881686;29;11578;-75
2021/04/27 10:56:55;;;;;;;;;11.00;9.00;;;;;9.10;66.86;101539.63;4901593;29;11472;-75
2021/04/27 10:59:26;;;;;;;;;8.75;8.75;;;;;9.20;65.70;101524.81;4919384;29;11521;-76
2021/04/27 11:02:24;;;;;;;;;8.00;8.00;;;;;9.13;67.86;101525.25;4905183;29;11492;-76
2021/04/27 11:05:22;;;;;;;;;8.00;8.00;;;;;8.84;67.20;101525.41;4917974;29;11494;-76
2021/04/27 11:08:18;;;;;;;;;6.25;6.25;;;;;9.12;67.79;101518.09;4905650;29;11549;-76
2021/04/27 11:11:31;;;;;;;;;10.00;10.00;;;;;9.07;68.11;101504.34;4897544;29;11538;-74
2021/04/27 11:14:17;;;;;;;;;12.00;11.75;;;;;9.22;68.52;101511.56;4895123;29;11525;-75
2021/04/27 11:16:53;;;;;;;;;7.75;7.75;;;;;8.94;67.70;101510.63;4899627;29;11524;-74
2021/04/27 11:19:44;;;;;;;;;9.00;9.00;;;;;9.06;67.17;101502.72;4892427;29;11604;-74
2021/04/27 11:23:00;;;;;;;;;8.00;8.00;;;;;9.14;67.87;101510.31;4880189;29;11495;-75
2021/04/27 11:25:56;;;;;;;;;7.50;7.50;;;;;9.22;67.25;101508.81;4874150;29;11506;-76
2021/04/27 11:28:54;;;;;;;;;1.00;1.00;;;;;9.21;66.79;101506.34;4883783;29;11511;-74
2021/04/27 11:31:22;;;;;;;;;8.00;8.00;;;;;9.23;67.77;101507.69;4878554;29;12275;-75
2021/04/27 11:34:01;;;;;;;;;9.25;9.25;;;;;9.10;69.05;101498.22;4883094;29;11611;-75
2021/04/27 11:36:32;;;;;;;;;10.75;9.50;;;;;9.02;71.25;101501.66;4911420;29;11495;-75
2021/04/27 11:39:20;;;;;;;;;6.00;6.00;;;;;8.69;67.14;101506.31;4898406;29;11540;-73
2021/04/27 11:41:51;;;;;;;;;7.25;7.25;;;;;8.51;67.00;101498.84;4913972;29;12288;-74
2021/04/27 11:44:47;;;;;;;;;8.00;8.00;;;;;8.34;67.11;101502.09;4905860;29;11706;-74
2021/04/27 11:47:17;;;;;;;;;9.50;9.50;;;;;8.63;68.04;101504.75;4897802;29;11516;-74
2021/04/27 11:50:19;;;;;;;;;13.00;13.00;;;;;8.52;70.11;101503.28;4898627;29;11588;-75
2021/04/27 11:52:49;;;;;;;;;6.25;6.25;;;;;8.42;68.43;101500.63;4898859;29;11599;-75
2021/04/27 11:55:45;;;;;;;;;9.25;9.25;;;;;8.60;68.92;101497.91;4896864;29;12240;-75
2021/04/27 11:58:45;;;;;;;;;9.75;9.75;;;;;8.38;70.30;101508.69;4882962;29;11671;-75
2021/04/27 12:01:41;;;;;;;;;7.25;7.25;;;;;8.46;70.72;101494.25;4898291;29;11600;-76
2021/04/27 12:04:37;;;;;;;;;7.75;7.75;;;;;8.58;69.87;101500.13;4899007;29;11570;-75
2021/04/27 12:07:33;;;;;;;;;7.50;6.50;;;;;8.46;70.60;101499.75;4890384;29;11587;-76
2021/04/27 12:10:03;;;;;;;;;7.25;7.25;;;;;8.30;71.51;101495.53;4870497;29;11552;-75
2021/04/27 12:12:59;;;;;;;;;9.00;9.00;;;;;8.23;71.74;101489.56;4872384;29;11509;-76
2021/04/27 12:16:07;;;;;;;;;8.00;8.00;;;;;8.28;71.82;101483.97;4894688;29;11516;-76
2021/04/27 12:19:10;;;;;;;;;6.25;6.25;;;;;8.51;69.75;101480.41;4867457;29;11616;-76
2021/04/27 12:22:06;;;;;;;;;8.00;8.00;;;;;8.51;69.68;101479.56;4885999;29;11487;-77
2021/04/27 12:24:36;;;;;;;;;7.00;6.75;;;;;8.29;69.70;101480.13;4861378;29;12347;-75
2021/04/27 12:27:10;;;;;;;;;8.00;8.00;;;;;8.18;71.27;101475.84;4893542;29;11527;-75
2021/04/27 12:30:09;;;;;;;;;7.50;7.50;;;;;8.04;72.80;101473.81;4874181;29;11532;-75
2021/04/27 12:33:09;;;;;;;;;11.00;11.00;;;;;8.28;73.00;101470.19;4890799;29;11553;-76
2021/04/27 12:36:05;;;;;;;;;8.00;8.00;;;;;8.38;72.96;101467.34;4871632;29;11603;-77
2021/04/27 12:39:04;;;;;;;;;7.50;7.50;;;;;8.46;71.56;101468.63;4879571;29;11586;-77
2021/04/27 12:41:46;;;;;;;;;9.50;7.00;;;;;8.57;72.03;101459.88;4892188;29;11579;-77
2021/04/27 12:44:42;;;;;;;;;7.50;7.50;;;;;8.56;72.05;101449.16;4887631;29;11580;-77
2021/04/27 12:47:31;;;;;;;;;13.25;12.75;;;;;8.60;74.29;101439.19;4898138;29;11563;-77
2021/04/27 12:50:18;;;;;;;;;17.50;17.50;;;;;8.55;74.41;101445.59;4884667;29;11494;-76
2021/04/27 12:53:14;;;;;;;;;15.25;15.25;;;;;8.68;73.82;101434.94;4893903;29;12198;-76
2021/04/27 12:56:15;;;;;;;;;12.50;12.50;;;;;8.60;74.18;101434.50;4879042;29;11479;-77
2021/04/27 12:59:21;;;;;;;;;11.25;11.25;;;;;8.51;73.32;101432.69;4888974;29;11468;-78
2021/04/27 13:01:57;;;;;;;;;5.50;5.50;;;;;8.06;74.25;101421.19;4896736;29;11486;-76